createdAt,value
2022-11-16T00:00:50.693Z,-4.16
2022-11-16T00:03:17.587Z,-4.21
2022-11-16T00:05:45.570Z,-4.23
2022-11-16T00:08:12.489Z,-4.21
2022-11-16T00:10:40.513Z,-4.24
2022-11-16T00:13:07.438Z,-4.25
2022-11-16T00:15:36.482Z,-4.25
2022-11-16T00:18:03.353Z,-4.26
2022-11-16T00:20:30.294Z,-4.29
2022-11-16T00:22:57.096Z,-4.28
2022-11-16T00:25:23.930Z,-4.25
2022-11-16T00:27:50.923Z,-4.24
2022-11-16T00:30:17.770Z,-4.19
2022-11-16T00:32:44.595Z,-4.14
2022-11-16T00:35:11.478Z,-4.11
2022-11-16T00:37:38.296Z,-4.10
2022-11-16T00:40:05.463Z,-4.06
2022-11-16T00:42:32.360Z,-4.02
2022-11-16T00:44:59.474Z,-4.03
2022-11-16T00:47:27.388Z,-4.03
2022-11-16T00:49:54.657Z,-4.00
2022-11-16T00:52:21.569Z,-3.98
2022-11-16T00:54:48.771Z,-3.95
2022-11-16T00:57:15.653Z,-3.93
2022-11-16T00:59:42.690Z,-3.92
2022-11-16T01:02:09.573Z,-3.90
2022-11-16T01:04:40.236Z,-3.89
2022-11-16T01:07:07.112Z,-3.90
2022-11-16T01:09:34.040Z,-3.87
2022-11-16T01:12:10.079Z,-3.88
2022-11-16T01:14:38.370Z,-3.88
2022-11-16T01:17:05.757Z,-3.86
2022-11-16T01:19:32.566Z,-3.86
2022-11-16T01:21:59.562Z,-3.87
2022-11-16T01:24:26.756Z,-3.88
2022-11-16T01:26:57.080Z,-3.86
2022-11-16T01:29:28.068Z,-3.85
2022-11-16T01:31:57.476Z,-3.82
2022-11-16T01:34:24.429Z,-3.81
2022-11-16T01:36:53.849Z,-3.84
2022-11-16T01:39:20.966Z,-3.89
2022-11-16T01:41:52.658Z,-3.90
2022-11-16T01:44:31.578Z,-3.89
2022-11-16T01:47:08.983Z,-3.96
2022-11-16T01:49:36.963Z,-3.98
2022-11-16T01:52:08.102Z,-3.96
2022-11-16T01:54:37.118Z,-3.95
2022-11-16T01:57:05.171Z,-3.92
2022-11-16T01:59:39.077Z,-3.95
2022-11-16T02:02:09.464Z,-3.93
2022-11-16T02:04:36.458Z,-3.97
2022-11-16T02:07:16.081Z,-4.03
2022-11-16T02:09:53.792Z,-4.02
2022-11-16T02:12:42.296Z,-4.03
2022-11-16T02:15:16.353Z,-4.04
2022-11-16T02:17:54.817Z,-4.05
2022-11-16T02:20:31.567Z,-4.07
2022-11-16T02:23:17.775Z,-4.07
2022-11-16T02:25:56.897Z,-4.13
2022-11-16T02:28:33.080Z,-4.15
2022-11-16T02:31:00.691Z,-4.16
2022-11-16T02:33:29.237Z,-4.13
2022-11-16T02:35:56.803Z,-4.11
2022-11-16T02:38:24.812Z,-4.07
2022-11-16T02:40:53.145Z,-4.10
2022-11-16T02:43:28.887Z,-4.18
2022-11-16T02:45:56.021Z,-4.18
2022-11-16T02:48:23.829Z,-4.17
2022-11-16T02:50:52.870Z,-4.13
2022-11-16T02:53:23.049Z,-4.12
2022-11-16T02:55:50.751Z,-4.18
2022-11-16T02:58:21.747Z,-4.17
2022-11-16T03:00:55.463Z,-4.18
2022-11-16T03:03:32.477Z,-4.11
2022-11-16T03:06:01.827Z,-4.06
2022-11-16T03:08:37.227Z,-4.04
2022-11-16T03:11:24.568Z,-4.06
2022-11-16T03:13:55.860Z,-4.09
2022-11-16T03:16:23.728Z,-4.11
2022-11-16T03:18:50.649Z,-4.16
2022-11-16T03:21:36.509Z,-4.19
2022-11-16T03:24:03.395Z,-4.24
2022-11-16T03:26:32.416Z,-4.28
2022-11-16T03:28:59.285Z,-4.28
2022-11-16T03:31:30.216Z,-4.31
2022-11-16T03:33:58.758Z,-4.29
2022-11-16T03:36:28.936Z,-4.30
2022-11-16T03:38:56.420Z,-4.29
2022-11-16T03:41:25.726Z,-4.29
2022-11-16T03:43:53.891Z,-4.26
2022-11-16T03:46:21.120Z,-4.22
2022-11-16T03:48:48.016Z,-4.22
2022-11-16T03:51:23.178Z,-4.25
2022-11-16T03:53:50.201Z,-4.24
2022-11-16T03:56:19.967Z,-4.25
2022-11-16T03:58:47.385Z,-4.24
2022-11-16T04:01:14.183Z,-4.20
2022-11-16T04:03:41.486Z,-4.18
2022-11-16T04:06:28.922Z,-4.17
2022-11-16T04:09:16.363Z,-4.14
2022-11-16T04:12:02.522Z,-4.20
2022-11-16T04:14:47.936Z,-4.18
2022-11-16T04:17:57.025Z,-4.17
2022-11-16T04:20:42.423Z,-4.24
2022-11-16T04:23:31.810Z,-4.31
2022-11-16T04:25:58.645Z,-4.42
2022-11-16T04:28:27.747Z,-4.41
2022-11-16T04:31:17.658Z,-4.42
2022-11-16T04:34:20.230Z,-4.41
2022-11-16T04:37:09.807Z,-4.42
2022-11-16T04:39:37.436Z,-4.45
2022-11-16T04:42:17.322Z,-4.46
2022-11-16T04:45:05.092Z,-4.46
2022-11-16T04:47:52.280Z,-4.45
2022-11-16T04:50:21.464Z,-4.44
2022-11-16T04:52:49.639Z,-4.45
2022-11-16T04:55:16.834Z,-4.46
2022-11-16T04:57:45.970Z,-4.49
2022-11-16T05:00:16.152Z,-4.50
2022-11-16T05:02:43.900Z,-4.53
2022-11-16T05:05:11.947Z,-4.54
2022-11-16T05:07:47.512Z,-4.52
2022-11-16T05:10:23.704Z,-4.55
2022-11-16T05:12:52.259Z,-4.54
2022-11-16T05:15:19.972Z,-4.56
2022-11-16T05:17:48.288Z,-4.53
2022-11-16T05:20:38.319Z,-4.55
2022-11-16T05:23:26.714Z,-4.60
2022-11-16T05:25:54.664Z,-4.65
2022-11-16T05:28:22.374Z,-4.69
2022-11-16T05:30:51.143Z,-4.72
2022-11-16T05:33:22.662Z,-4.74
2022-11-16T05:35:51.168Z,-4.76
2022-11-16T05:38:19.413Z,-4.72
2022-11-16T05:40:51.793Z,-4.72
2022-11-16T05:43:19.173Z,-4.69
2022-11-16T05:45:55.044Z,-4.68
2022-11-16T05:48:22.068Z,-4.69
2022-11-16T05:53:33.490Z,-4.67
2022-11-16T05:56:00.865Z,-4.66
2022-11-16T05:58:28.314Z,-4.68
2022-11-16T06:01:03.319Z,-4.68
2022-11-16T06:03:32.149Z,-4.63
2022-11-16T06:05:59.925Z,-4.59
2022-11-16T06:08:28.602Z,-4.58
2022-11-16T06:11:01.387Z,-4.54
2022-11-16T06:13:28.293Z,-4.52
2022-11-16T06:15:57.751Z,-4.57
2022-11-16T06:18:25.027Z,-4.57
2022-11-16T06:20:51.888Z,-4.55
2022-11-16T06:23:20.495Z,-4.54
2022-11-16T06:25:47.550Z,-4.53
2022-11-16T06:28:14.659Z,-4.52
2022-11-16T06:30:41.637Z,-4.55
2022-11-16T06:33:08.816Z,-4.54
2022-11-16T06:35:37.000Z,-4.55
2022-11-16T06:38:04.430Z,-4.53
2022-11-16T06:40:32.801Z,-4.51
2022-11-16T06:43:01.258Z,-4.51
2022-11-16T06:45:29.256Z,-4.54
2022-11-16T06:47:58.869Z,-4.46
2022-11-16T06:50:26.709Z,-4.48
2022-11-16T06:52:54.237Z,-4.38
2022-11-16T06:55:33.428Z,-4.30
2022-11-16T06:58:04.171Z,-4.22
2022-11-16T07:00:31.974Z,-4.24
2022-11-16T07:02:59.158Z,-4.23
2022-11-16T07:05:26.140Z,-4.13
2022-11-16T07:10:36.537Z,-4.04
2022-11-16T07:13:04.578Z,-3.98
2022-11-16T07:15:32.972Z,-3.83
2022-11-16T07:18:06.500Z,-3.72
2022-11-16T07:20:39.134Z,-3.70
2022-11-16T07:23:09.071Z,-3.50
2022-11-16T07:25:40.514Z,-3.17
2022-11-16T07:28:08.180Z,-2.88
2022-11-16T07:30:37.478Z,-2.76
2022-11-16T07:33:09.083Z,-2.21
2022-11-16T07:36:00.791Z,-2.01
2022-11-16T07:38:27.970Z,-1.84
2022-11-16T07:40:54.796Z,-1.53
2022-11-16T07:43:22.984Z,-1.29
2022-11-16T07:49:10.954Z,-0.17
2022-11-16T07:52:10.792Z,0.05
2022-11-16T07:54:51.568Z,0.49
2022-11-16T07:57:21.719Z,0.64
2022-11-16T07:59:49.627Z,1.10
2022-11-16T08:02:17.029Z,0.95
2022-11-16T08:04:48.052Z,0.89
2022-11-16T08:07:19.259Z,1.24
2022-11-16T08:09:52.328Z,0.97
2022-11-16T08:12:20.765Z,0.94
2022-11-16T08:14:50.925Z,0.84
2022-11-16T08:17:18.211Z,0.86
2022-11-16T08:19:45.252Z,1.42
2022-11-16T08:22:17.025Z,1.44
2022-11-16T08:24:48.367Z,1.90
2022-11-16T08:27:17.162Z,2.12
2022-11-16T08:29:50.737Z,1.91
2022-11-16T08:32:32.404Z,2.01
2022-11-16T08:34:59.365Z,2.11
2022-11-16T08:37:28.073Z,2.29
2022-11-16T08:39:55.214Z,2.60
2022-11-16T08:42:23.142Z,2.59
2022-11-16T08:44:49.965Z,2.70
2022-11-16T08:47:19.589Z,3.04
2022-11-16T08:49:58.713Z,3.29
2022-11-16T08:52:32.184Z,3.36
2022-11-16T08:55:00.477Z,3.54
2022-11-16T08:57:27.912Z,3.65
2022-11-16T08:59:58.831Z,3.86
2022-11-16T09:02:25.900Z,4.01
2022-11-16T09:04:53.263Z,4.00
2022-11-16T09:07:20.439Z,3.97
2022-11-16T09:09:47.914Z,4.04
2022-11-16T09:14:55.852Z,4.84
2022-11-16T09:17:23.355Z,4.93
2022-11-16T09:19:50.376Z,4.98
2022-11-16T09:22:17.137Z,5.52
2022-11-16T09:24:44.148Z,5.89
2022-11-16T09:27:10.926Z,6.04
2022-11-16T09:29:38.012Z,5.96
2022-11-16T09:32:05.197Z,5.70
2022-11-16T09:34:34.032Z,5.63
2022-11-16T09:37:01.239Z,5.45
2022-11-16T09:39:31.603Z,4.89
2022-11-16T09:41:59.997Z,5.08
2022-11-16T09:47:22.039Z,4.87
2022-11-16T09:49:51.760Z,5.00
2022-11-16T09:52:24.704Z,2.93
2022-11-16T09:54:51.516Z,1.17
2022-11-16T09:57:19.406Z,0.80
2022-11-16T09:59:53.987Z,0.69
2022-11-16T10:02:35.561Z,2.02
2022-11-16T10:05:14.980Z,2.05
2022-11-16T10:07:46.892Z,3.87
2022-11-16T10:10:14.456Z,3.60
2022-11-16T10:12:59.772Z,2.27
2022-11-16T10:15:33.519Z,1.27
2022-11-16T10:18:15.840Z,0.92
2022-11-16T10:20:55.699Z,0.52
2022-11-16T10:23:31.880Z,0.13
2022-11-16T10:26:22.274Z,-0.31
2022-11-16T10:29:05.422Z,-0.55
2022-11-16T10:31:38.175Z,-0.60
2022-11-16T10:34:05.939Z,-0.72
2022-11-16T10:36:32.795Z,-0.82
2022-11-16T10:38:59.638Z,-0.98
2022-11-16T10:41:30.467Z,-1.01
2022-11-16T10:43:58.369Z,-0.98
2022-11-16T10:46:36.618Z,-1.01
2022-11-16T10:49:09.036Z,-1.08
2022-11-16T10:51:36.370Z,-1.28
2022-11-16T10:54:04.769Z,-1.42
2022-11-16T10:56:32.766Z,-1.40
2022-11-16T10:59:00.314Z,-1.40
2022-11-16T11:01:37.725Z,-1.44
2022-11-16T11:04:13.459Z,-1.39
2022-11-16T11:06:40.701Z,-1.30
2022-11-16T11:09:30.954Z,-1.32
2022-11-16T11:12:20.087Z,-1.38
2022-11-16T11:15:06.146Z,-1.65
2022-11-16T11:17:34.120Z,-1.62
2022-11-16T11:20:05.854Z,-1.58
2022-11-16T11:22:34.358Z,-1.68
2022-11-16T11:25:02.069Z,-1.70
2022-11-16T11:27:34.075Z,-1.70
2022-11-16T11:30:00.958Z,-1.79
2022-11-16T11:32:31.420Z,-1.70
2022-11-16T11:35:01.916Z,-1.72
2022-11-16T11:37:37.181Z,-1.78
2022-11-16T11:40:07.145Z,-1.77
2022-11-16T11:42:34.345Z,-1.83
2022-11-16T11:45:06.068Z,-1.85
2022-11-16T11:47:56.809Z,-1.90
2022-11-16T11:50:54.172Z,-2.01
2022-11-16T11:53:39.791Z,-2.04
2022-11-16T11:56:10.289Z,-1.98
2022-11-16T11:58:37.751Z,-2.01
2022-11-16T12:01:26.513Z,-2.03
2022-11-16T12:04:11.977Z,-2.06
2022-11-16T12:06:49.109Z,-2.08
2022-11-16T12:09:24.914Z,-2.12
2022-11-16T12:12:14.616Z,-2.11
2022-11-16T12:15:01.221Z,-2.14
2022-11-16T12:17:33.236Z,-2.28
2022-11-16T12:20:03.911Z,-2.31
2022-11-16T12:22:48.495Z,-2.38
2022-11-16T12:25:21.699Z,-2.36
2022-11-16T12:28:11.536Z,-2.43
2022-11-16T12:30:57.011Z,-2.42
2022-11-16T12:33:42.824Z,-2.44
2022-11-16T12:36:16.176Z,-2.43
2022-11-16T12:38:59.145Z,-2.48
2022-11-16T12:41:27.014Z,-2.60
2022-11-16T12:44:01.340Z,-2.67
2022-11-16T12:46:43.700Z,-2.68
2022-11-16T12:49:13.710Z,-2.74
2022-11-16T12:51:52.739Z,-2.82
2022-11-16T12:54:26.010Z,-2.90
2022-11-16T12:56:52.857Z,-3.00
2022-11-16T12:59:43.054Z,-3.14
2022-11-16T13:02:13.092Z,-3.21
2022-11-16T13:04:45.718Z,-3.32
2022-11-16T13:07:20.796Z,-3.43
2022-11-16T13:09:49.249Z,-3.47
2022-11-16T13:12:17.348Z,-3.49
2022-11-16T13:14:50.520Z,-3.53
2022-11-16T13:17:20.575Z,-3.62
2022-11-16T13:20:00.343Z,-3.70
2022-11-16T13:22:27.678Z,-3.76
2022-11-16T13:24:58.883Z,-3.82
2022-11-16T13:27:31.384Z,-3.86
2022-11-16T13:30:01.180Z,-3.97
2022-11-16T13:32:33.229Z,-4.06
2022-11-16T13:35:00.381Z,-4.13
2022-11-16T13:37:39.616Z,-4.21
2022-11-16T13:40:06.670Z,-4.27
2022-11-16T13:42:34.703Z,-4.33
2022-11-16T13:45:22.185Z,-4.41
2022-11-16T13:47:52.760Z,-4.47
2022-11-16T13:50:23.899Z,-4.55
2022-11-16T13:55:47.776Z,-4.64
2022-11-16T13:58:20.196Z,-4.63
2022-11-16T14:00:55.264Z,-4.71
2022-11-16T14:03:22.214Z,-4.78
2022-11-16T14:05:53.130Z,-4.88
2022-11-16T14:08:25.811Z,-4.91
2022-11-16T14:10:52.929Z,-4.93
2022-11-16T14:13:50.182Z,-4.97
2022-11-16T14:16:20.239Z,-5.01
2022-11-16T14:18:51.305Z,-5.05
2022-11-16T14:21:38.791Z,-5.07
2022-11-16T14:24:24.589Z,-5.06
2022-11-16T14:26:58.969Z,-5.12
2022-11-16T14:29:58.365Z,-5.09
2022-11-16T14:32:29.477Z,-5.11
2022-11-16T14:34:56.965Z,-5.14
2022-11-16T14:37:30.110Z,-5.14
2022-11-16T14:40:09.092Z,-5.20
2022-11-16T14:45:40.075Z,-5.28
2022-11-16T14:48:15.000Z,-5.29
2022-11-16T14:50:44.933Z,-5.30
2022-11-16T14:53:13.550Z,-5.33
2022-11-16T14:55:41.599Z,-5.40
2022-11-16T14:58:09.786Z,-5.45
2022-11-16T15:00:37.314Z,-5.52
2022-11-16T15:03:04.516Z,-5.55
2022-11-16T15:05:34.185Z,-5.54
2022-11-16T15:08:01.522Z,-5.61
2022-11-16T15:10:28.782Z,-5.69
2022-11-16T15:12:56.207Z,-5.70
2022-11-16T15:15:30.116Z,-5.73
2022-11-16T15:18:00.370Z,-5.71
2022-11-16T15:20:28.630Z,-5.76
2022-11-16T15:22:57.514Z,-5.79
2022-11-16T15:25:30.888Z,-5.82
2022-11-16T15:28:04.416Z,-5.85
2022-11-16T15:30:32.662Z,-5.89
2022-11-16T15:33:02.032Z,-5.88
2022-11-16T15:35:32.518Z,-5.88
2022-11-16T15:38:11.764Z,-5.89
2022-11-16T15:40:38.810Z,-5.92
2022-11-16T15:43:08.827Z,-5.90
2022-11-16T15:45:37.632Z,-5.92
2022-11-16T15:48:05.124Z,-5.99
2022-11-16T15:50:32.118Z,-6.03
2022-11-16T15:53:00.035Z,-6.07
2022-11-16T15:55:35.784Z,-6.09
2022-11-16T15:58:26.660Z,-6.09
2022-11-16T16:00:54.587Z,-6.15
2022-11-16T16:03:25.530Z,-6.19
2022-11-16T16:05:52.739Z,-6.17
2022-11-16T16:08:27.455Z,-6.23
2022-11-16T16:11:08.316Z,-6.29
2022-11-16T16:13:36.869Z,-6.36
2022-11-16T16:16:13.883Z,-6.37
2022-11-16T16:21:28.701Z,-6.38
2022-11-16T16:23:57.388Z,-6.40
2022-11-16T16:26:30.372Z,-6.44
2022-11-16T16:28:57.726Z,-6.40
2022-11-16T16:31:25.065Z,-6.36
2022-11-16T16:33:53.249Z,-6.37
2022-11-16T16:36:23.988Z,-6.46
2022-11-16T16:38:54.544Z,-6.52
2022-11-16T16:41:24.530Z,-6.59
2022-11-16T16:43:52.080Z,-6.54
2022-11-16T16:46:18.987Z,-6.60
2022-11-16T16:48:45.942Z,-6.62
2022-11-16T16:51:17.874Z,-6.67
2022-11-16T16:53:44.861Z,-6.68
2022-11-16T16:56:15.913Z,-6.70
2022-11-16T16:58:42.954Z,-6.70
2022-11-16T17:01:10.829Z,-6.74
2022-11-16T17:03:38.744Z,-6.76
2022-11-16T17:06:06.860Z,-6.77
2022-11-16T17:08:37.249Z,-6.79
2022-11-16T17:11:04.242Z,-6.76
2022-11-16T17:13:36.786Z,-6.69
2022-11-16T17:16:04.552Z,-6.74
2022-11-16T17:18:31.327Z,-6.73
2022-11-16T17:21:03.190Z,-6.73
2022-11-16T17:23:30.174Z,-6.80
2022-11-16T17:25:56.973Z,-6.83
2022-11-16T17:28:24.557Z,-6.86
2022-11-16T17:30:51.704Z,-6.89
2022-11-16T17:33:18.656Z,-6.91
2022-11-16T17:35:54.491Z,-6.95
2022-11-16T17:38:21.560Z,-6.95
2022-11-16T17:40:48.383Z,-6.93
2022-11-16T17:43:15.295Z,-6.91
2022-11-16T17:45:42.340Z,-6.99
2022-11-16T17:48:09.281Z,-7.01
2022-11-16T17:50:36.855Z,-7.03
2022-11-16T17:53:03.918Z,-7.08
2022-11-16T17:55:30.768Z,-7.10
2022-11-16T17:58:02.097Z,-7.06
2022-11-16T18:00:32.300Z,-7.07
2022-11-16T18:03:11.217Z,-7.10
2022-11-16T18:05:38.135Z,-7.19
2022-11-16T18:08:05.745Z,-7.21
2022-11-16T18:10:33.843Z,-7.23
2022-11-16T18:13:00.870Z,-7.21
2022-11-16T18:15:29.192Z,-7.21
2022-11-16T18:17:56.949Z,-7.26
2022-11-16T18:20:24.469Z,-7.30
2022-11-16T18:22:51.532Z,-7.38
2022-11-16T18:25:18.537Z,-7.44
2022-11-16T18:27:45.409Z,-7.50
2022-11-16T18:30:17.713Z,-7.58
2022-11-16T18:32:44.689Z,-7.59
2022-11-16T18:35:11.886Z,-7.58
2022-11-16T18:37:38.735Z,-7.60
2022-11-16T18:40:06.405Z,-7.56
2022-11-16T18:42:33.394Z,-7.63
2022-11-16T18:45:01.540Z,-7.69
2022-11-16T18:47:35.371Z,-7.69
2022-11-16T18:50:02.574Z,-7.68
2022-11-16T18:52:31.884Z,-7.61
2022-11-16T18:54:58.894Z,-7.53
2022-11-16T18:57:28.336Z,-7.50
2022-11-16T19:00:01.629Z,-7.41
2022-11-16T19:02:30.966Z,-7.38
2022-11-16T19:05:01.344Z,-7.36
2022-11-16T19:07:29.861Z,-7.32
2022-11-16T19:15:18.420Z,-7.12
2022-11-16T19:18:14.224Z,-7.09
2022-11-16T19:20:44.347Z,-7.09
2022-11-16T19:23:19.602Z,-7.08
2022-11-16T19:25:46.472Z,-7.03
2022-11-16T19:28:15.405Z,-6.94
2022-11-16T19:30:42.507Z,-6.88
2022-11-16T19:33:10.148Z,-6.85
2022-11-16T19:35:38.689Z,-6.80
2022-11-16T19:38:05.648Z,-6.76
2022-11-16T19:40:32.613Z,-6.73
2022-11-16T19:42:59.562Z,-6.70
2022-11-16T19:45:26.691Z,-6.65
2022-11-16T19:47:56.486Z,-6.64
2022-11-16T19:50:25.064Z,-6.59
2022-11-16T19:52:54.429Z,-6.55
2022-11-16T19:55:21.281Z,-6.47
2022-11-16T19:57:48.168Z,-6.44
2022-11-16T20:00:15.557Z,-6.43
2022-11-16T20:02:42.497Z,-6.39
2022-11-16T20:05:09.536Z,-6.29
2022-11-16T20:07:39.331Z,-6.18
2022-11-16T20:10:06.653Z,-6.13
2022-11-16T20:12:33.475Z,-6.12
2022-11-16T20:15:01.540Z,-6.11
2022-11-16T20:17:28.533Z,-6.17
2022-11-16T20:19:56.852Z,-6.19
2022-11-16T20:22:24.161Z,-6.16
2022-11-16T20:24:51.228Z,-6.14
2022-11-16T20:27:18.137Z,-6.12
2022-11-16T20:29:45.020Z,-6.11
2022-11-16T20:32:11.905Z,-6.09
2022-11-16T20:34:53.213Z,-6.09
2022-11-16T20:37:20.847Z,-6.06
2022-11-16T20:39:52.425Z,-6.06
2022-11-16T20:42:19.654Z,-6.06
2022-11-16T20:44:46.557Z,-6.05
2022-11-16T20:47:13.381Z,-6.05
2022-11-16T20:49:40.191Z,-6.11
2022-11-16T20:52:07.052Z,-6.14
2022-11-16T20:54:33.911Z,-6.25
2022-11-16T20:57:00.796Z,-6.30
2022-11-16T20:59:28.277Z,-6.28
2022-11-16T21:01:55.299Z,-6.29
2022-11-16T21:04:23.885Z,-6.30
2022-11-16T21:06:50.890Z,-6.30
2022-11-16T21:09:22.991Z,-6.34
2022-11-16T21:12:08.282Z,-6.33
2022-11-16T21:14:35.225Z,-6.32
2022-11-16T21:17:02.019Z,-6.31
2022-11-16T21:19:28.871Z,-6.30
2022-11-16T21:21:55.798Z,-6.26
2022-11-16T21:24:24.862Z,-6.21
2022-11-16T21:26:52.679Z,-6.11
2022-11-16T21:29:22.384Z,-6.00
2022-11-16T21:31:49.662Z,-5.95
2022-11-16T21:34:16.550Z,-5.98
2022-11-16T21:36:43.635Z,-6.00
2022-11-16T21:39:10.473Z,-5.99
2022-11-16T21:41:37.386Z,-5.94
2022-11-16T21:44:12.215Z,-5.92
2022-11-16T21:46:57.108Z,-5.97
2022-11-16T21:49:24.781Z,-6.02
2022-11-16T21:51:51.683Z,-6.06
2022-11-16T21:54:18.663Z,-6.05
2022-11-16T21:56:45.470Z,-6.06
2022-11-16T21:59:12.205Z,-6.04
2022-11-16T22:01:59.174Z,-6.00
2022-11-16T22:04:44.613Z,-5.97
2022-11-16T22:07:32.985Z,-5.95
2022-11-16T22:10:01.467Z,-5.93
2022-11-16T22:12:30.977Z,-6.00
2022-11-16T22:15:03.095Z,-6.06
2022-11-16T22:17:30.570Z,-6.05
2022-11-16T22:19:57.516Z,-6.08
2022-11-16T22:22:24.591Z,-6.10
2022-11-16T22:24:51.622Z,-6.15
2022-11-16T22:27:18.814Z,-6.15
2022-11-16T22:29:45.880Z,-6.14
2022-11-16T22:32:12.969Z,-6.10
2022-11-16T22:34:39.988Z,-6.05
2022-11-16T22:37:06.942Z,-5.99
2022-11-16T22:39:33.914Z,-5.94
2022-11-16T22:42:00.826Z,-5.90
2022-11-16T22:44:29.170Z,-5.85
2022-11-16T22:46:56.054Z,-5.84
2022-11-16T22:49:22.900Z,-5.84
2022-11-16T22:51:49.937Z,-5.83
2022-11-16T22:54:17.234Z,-5.81
2022-11-16T22:56:44.025Z,-5.80
2022-11-16T22:59:10.951Z,-5.85
2022-11-16T23:01:37.845Z,-5.87
2022-11-16T23:04:04.722Z,-5.83
2022-11-16T23:06:31.645Z,-5.78
2022-11-16T23:08:58.618Z,-5.76
2022-11-16T23:11:44.408Z,-5.70
2022-11-16T23:14:32.872Z,-5.71
2022-11-16T23:16:59.913Z,-5.67
2022-11-16T23:19:47.354Z,-5.63
2022-11-16T23:22:33.558Z,-5.63
2022-11-16T23:25:18.956Z,-5.57
2022-11-16T23:27:54.456Z,-5.57
2022-11-16T23:30:23.715Z,-5.54
2022-11-16T23:32:50.815Z,-5.48
2022-11-16T23:35:18.345Z,-5.41
2022-11-16T23:37:55.473Z,-5.39
2022-11-16T23:40:23.735Z,-5.36
2022-11-16T23:43:09.688Z,-5.34
2022-11-16T23:45:37.040Z,-5.31
2022-11-16T23:48:04.079Z,-5.32
2022-11-16T23:50:30.897Z,-5.33
2022-11-16T23:52:57.796Z,-5.37
2022-11-16T23:55:25.027Z,-5.36
2022-11-16T23:57:51.873Z,-5.34
